Time;durP1;ratioP1;P1;durP2;ratioP2;P2;SDS_P1;SDS_P2;PMS_P1;PMS_P2;Temp;Humidity;BMP_temperature;BMP_pressure;BME280_temperature;BME280_humidity;BME280_pressure;Samples;Min_cycle;Max_cycle;Signal;HPM_P1;HPM_P2
2021/01/03 00:00:23;;;;;;;92.53;35.10;;;;;;;-1.38;100.00;95197.91;1028732;28;20059;-74
2021/01/03 00:00:53;;;;;;;84.43;33.80;;;;;;;-1.45;100.00;95183.72;1028943;28;20443;-72
2021/01/03 00:01:24;;;;;;;89.38;35.33;;;;;;;-1.41;100.00;95200.78;1021101;29;20098;-73
2021/01/03 00:01:57;;;;;;;92.28;34.35;;;;;;;-1.41;100.00;95190.38;1029139;28;20392;-74
2021/01/03 00:02:28;;;;;;;79.80;31.75;;;;;;;-1.44;100.00;95195.81;1024640;28;20535;-74
2021/01/03 00:02:59;;;;;;;82.75;33.22;;;;;;;-1.52;100.00;95183.38;1020541;29;20154;-73
2021/01/03 00:03:30;;;;;;;83.50;33.15;;;;;;;-1.43;100.00;95200.06;1028818;28;20546;-73
2021/01/03 00:04:01;;;;;;;81.97;34.03;;;;;;;-1.52;100.00;95190.38;1028785;28;20014;-73
2021/01/03 00:04:31;;;;;;;80.97;33.20;;;;;;;-1.53;100.00;95192.16;1028871;28;20021;-73
2021/01/03 00:05:03;;;;;;;86.57;32.78;;;;;;;-1.49;100.00;95192.75;1028796;28;20411;-73
2021/01/03 00:05:34;;;;;;;77.15;32.35;;;;;;;-1.45;100.00;95196.75;1024560;29;20059;-73
2021/01/03 00:06:06;;;;;;;82.47;31.27;;;;;;;-1.44;100.00;95192.38;1024897;29;20016;-73
2021/01/03 00:06:37;;;;;;;79.57;31.13;;;;;;;-1.45;100.00;95194.13;1020866;29;20020;-73
2021/01/03 00:07:08;;;;;;;86.35;32.33;;;;;;;-1.45;100.00;95191.53;1028581;28;20050;-74
2021/01/03 00:07:39;;;;;;;81.72;33.05;;;;;;;-1.46;100.00;95184.69;1028598;28;20021;-73
2021/01/03 00:08:09;;;;;;;76.43;31.73;;;;;;;-1.41;100.00;95184.31;1024814;29;20016;-73
2021/01/03 00:08:40;;;;;;;78.82;33.25;;;;;;;-1.33;100.00;95181.94;1020868;29;20453;-73
2021/01/03 00:09:11;;;;;;;82.43;33.40;;;;;;;-1.35;100.00;95189.88;1024582;29;20011;-73
2021/01/03 00:09:42;;;;;;;79.28;34.17;;;;;;;-1.31;100.00;95187.03;1024620;29;20102;-73
2021/01/03 00:10:13;;;;;;;83.20;33.08;;;;;;;-1.39;100.00;95185.84;1024950;29;20027;-74
2021/01/03 00:10:44;;;;;;;81.05;34.63;;;;;;;-1.43;100.00;95191.41;1024944;29;20015;-73
2021/01/03 00:11:15;;;;;;;75.60;30.88;;;;;;;-1.49;100.00;95177.13;1028668;28;20081;-73
2021/01/03 00:11:45;;;;;;;80.43;33.22;;;;;;;-1.50;100.00;95180.66;1024785;28;20110;-73
2021/01/03 00:12:16;;;;;;;81.70;31.80;;;;;;;-1.54;100.00;95169.66;1020511;29;20460;-73
2021/01/03 00:12:47;;;;;;;77.90;32.00;;;;;;;-1.44;100.00;95184.56;1024970;29;20026;-73
2021/01/03 00:13:18;;;;;;;79.50;32.65;;;;;;;-1.52;100.00;95182.56;1032703;28;20022;-73
2021/01/03 00:13:49;;;;;;;74.82;31.35;;;;;;;-1.54;100.00;95179.25;1028838;28;20096;-73
2021/01/03 00:14:20;;;;;;;81.28;32.92;;;;;;;-1.40;100.00;95188.56;1028922;28;20023;-74
2021/01/03 00:14:51;;;;;;;73.35;31.52;;;;;;;-1.39;100.00;95185.03;1028801;28;20015;-73
2021/01/03 00:15:23;;;;;;;81.57;32.47;;;;;;;-1.36;100.00;95190.81;1024698;29;20428;-73
2021/01/03 00:15:53;;;;;;;78.93;32.35;;;;;;;-1.42;100.00;95188.69;1024814;29;20022;-73
2021/01/03 00:16:25;;;;;;;80.60;32.95;;;;;;;-1.53;100.00;95168.72;1024666;29;20026;-73
2021/01/03 00:16:57;;;;;;;80.25;32.33;;;;;;;-1.43;100.00;95184.47;1032971;28;20026;-73
2021/01/03 00:17:28;;;;;;;77.15;31.00;;;;;;;-1.37;100.00;95186.56;1029020;28;20025;-73
2021/01/03 00:17:59;;;;;;;82.13;31.27;;;;;;;-1.36;100.00;95188.22;1025093;29;20026;-73
2021/01/03 00:18:29;;;;;;;76.78;31.73;;;;;;;-1.31;100.00;95189.63;1028793;28;20030;-73
2021/01/03 00:19:00;;;;;;;71.03;29.38;;;;;;;-1.39;100.00;95175.44;1029034;28;20018;-74
2021/01/03 00:19:31;;;;;;;74.40;31.95;;;;;;;-1.49;100.00;95161.50;1028903;28;20491;-73
2021/01/03 00:20:05;;;;;;;77.95;32.30;;;;;;;-1.43;100.00;95173.19;1028723;28;20031;-73
2021/01/03 00:20:36;;;;;;;72.60;30.45;;;;;;;-1.40;100.00;95184.19;1028944;28;20538;-73
2021/01/03 00:21:07;;;;;;;69.50;29.00;;;;;;;-1.49;100.00;95171.91;1025312;29;20027;-73
2021/01/03 00:21:37;;;;;;;74.93;29.75;;;;;;;-1.47;100.00;95174.41;1028672;28;20019;-73
2021/01/03 00:22:08;;;;;;;71.20;30.30;;;;;;;-1.51;100.00;95184.22;1028847;28;20460;-73
2021/01/03 00:22:39;;;;;;;71.05;29.65;;;;;;;-1.61;100.00;95171.09;1024745;29;20019;-73
2021/01/03 00:23:10;;;;;;;73.05;29.50;;;;;;;-1.54;100.00;95181.84;1021335;29;20024;-73
2021/01/03 00:23:41;;;;;;;72.25;30.83;;;;;;;-1.54;100.00;95169.66;1028757;28;20523;-73
2021/01/03 00:24:11;;;;;;;76.45;31.50;;;;;;;-1.46;100.00;95176.03;1032730;28;20120;-73
2021/01/03 00:24:42;;;;;;;68.78;31.45;;;;;;;-1.42;100.00;95182.66;1032929;28;20026;-73
2021/01/03 00:25:13;;;;;;;66.93;28.23;;;;;;;-1.41;100.00;95168.69;1033049;28;20022;-74
2021/01/03 00:25:44;;;;;;;71.05;29.85;;;;;;;-1.40;100.00;95178.97;1032901;28;20105;-73
2021/01/03 00:26:15;;;;;;;67.25;29.98;;;;;;;-1.39;100.00;95175.44;1028436;28;20029;-73
2021/01/03 00:26:46;;;;;;;74.93;31.60;;;;;;;-1.50;100.00;95161.63;1024952;29;20114;-73
2021/01/03 00:27:17;;;;;;;74.07;31.13;;;;;;;-1.38;100.00;95166.66;1028889;28;20113;-74
2021/01/03 00:27:49;;;;;;;74.97;28.98;;;;;;;-1.36;100.00;95167.41;1028734;28;20522;-73
2021/01/03 00:28:20;;;;;;;77.80;31.63;;;;;;;-1.34;100.00;95173.31;1028726;28;20434;-73
2021/01/03 00:28:51;;;;;;;74.88;29.88;;;;;;;-1.28;100.00;95164.16;1020915;29;20077;-74
2021/01/03 00:29:22;;;;;;;70.50;29.77;;;;;;;-1.26;100.00;95174.47;1028916;28;20026;-74
2021/01/03 00:29:53;;;;;;;76.55;31.45;;;;;;;-1.34;100.00;95169.88;1025042;28;20023;-74
2021/01/03 00:30:26;;;;;;;74.50;31.25;;;;;;;-1.47;100.00;95151.78;1028701;28;20093;-73
2021/01/03 00:30:56;;;;;;;78.03;31.65;;;;;;;-1.37;100.00;95168.31;1028925;28;20010;-73
2021/01/03 00:31:27;;;;;;;73.20;30.50;;;;;;;-1.33;100.00;95167.13;1028935;28;20023;-73
2021/01/03 00:31:59;;;;;;;73.85;30.48;;;;;;;-1.39;100.00;95162.41;1028969;28;20046;-73
2021/01/03 00:32:30;;;;;;;69.03;29.15;;;;;;;-1.31;100.00;95166.19;1028956;28;20135;-73
2021/01/03 00:33:01;;;;;;;73.60;30.83;;;;;;;-1.45;100.00;95147.28;1037127;28;20481;-73
2021/01/03 00:33:32;;;;;;;69.97;30.08;;;;;;;-1.34;100.00;95169.88;1033025;28;20454;-73
2021/01/03 00:34:02;;;;;;;71.22;30.77;;;;;;;-1.50;100.00;95154.63;1028794;28;20033;-74
2021/01/03 00:34:33;;;;;;;67.13;29.38;;;;;;;-1.38;100.00;95168.44;1024809;29;20030;-73
2021/01/03 00:35:06;;;;;;;59.83;27.80;;;;;;;-1.44;100.00;95159.34;1025012;29;20016;-74
2021/01/03 00:35:38;;;;;;;66.50;28.75;;;;;;;-1.53;100.00;95150.50;1028802;28;20033;-73
2021/01/03 00:36:09;;;;;;;64.88;29.55;;;;;;;-1.51;100.00;95158.19;1032861;28;20026;-73
2021/01/03 00:36:40;;;;;;;68.47;29.05;;;;;;;-1.53;100.00;95160.09;1028831;28;20027;-74
2021/01/03 00:37:10;;;;;;;65.22;28.15;;;;;;;-1.50;100.00;95161.63;1025092;29;20130;-74
2021/01/03 00:37:41;;;;;;;61.97;27.40;;;;;;;-1.49;100.00;95164.09;1032916;28;20139;-73
2021/01/03 00:38:12;;;;;;;65.85;28.23;;;;;;;-1.49;100.00;95164.09;1032855;28;20022;-73
2021/01/03 00:38:43;;;;;;;62.92;27.25;;;;;;;-1.41;100.00;95168.69;1028910;28;20027;-73
2021/01/03 00:39:14;;;;;;;64.50;28.13;;;;;;;-1.37;100.00;95170.94;1028647;28;20033;-74
2021/01/03 00:39:45;;;;;;;71.30;30.48;;;;;;;-1.41;100.00;95164.31;1025070;29;20031;-73
2021/01/03 00:40:20;;;;;;;59.67;27.98;;;;;;;-1.45;100.00;95165.50;1025059;29;20030;-73
2021/01/03 00:40:51;;;;;;;69.32;27.98;;;;;;;-1.46;100.00;95168.22;1028659;28;20022;-73
2021/01/03 00:41:23;;;;;;;74.53;30.95;;;;;;;-1.48;100.00;95152.75;1032819;28;20026;-74
2021/01/03 00:41:53;;;;;;;68.28;28.10;;;;;;;-1.39;100.00;95167.63;1024867;29;20031;-74
2021/01/03 00:42:24;;;;;;;72.82;30.45;;;;;;;-1.42;100.00;95146.22;1028737;28;20026;-73
2021/01/03 00:42:55;;;;;;;70.97;29.75;;;;;;;-1.31;100.00;95161.78;1024765;29;20122;-73
2021/01/03 00:43:26;;;;;;;70.20;29.02;;;;;;;-1.44;100.00;95159.34;1024861;28;20027;-74
2021/01/03 00:43:56;;;;;;;78.32;31.13;;;;;;;-1.44;100.00;95167.16;1029440;28;20022;-73
2021/01/03 00:44:27;;;;;;;74.03;29.88;;;;;;;-1.49;100.00;95155.47;1029588;28;20109;-73
2021/01/03 00:44:58;;;;;;;73.57;29.48;;;;;;;-1.38;100.00;95163.25;1025643;29;20511;-72
2021/01/03 00:45:29;;;;;;;69.05;29.08;;;;;;;-1.39;100.00;95161.59;1025809;29;20035;-73
2021/01/03 00:46:01;;;;;;;71.15;30.85;;;;;;;-1.34;100.00;95164.66;1029672;28;20109;-73
2021/01/03 00:46:32;;;;;;;65.07;28.27;;;;;;;-1.38;100.00;95165.84;1025606;29;20051;-72
2021/01/03 00:47:02;;;;;;;66.03;29.20;;;;;;;-1.36;100.00;95162.19;1021498;29;20505;-72
2021/01/03 00:47:33;;;;;;;72.75;31.10;;;;;;;-1.50;100.00;95157.22;1029767;28;20439;-73
2021/01/03 00:48:05;;;;;;;69.97;29.85;;;;;;;-1.43;100.00;95157.56;1021566;29;20393;-73
2021/01/03 00:48:36;;;;;;;72.55;30.20;;;;;;;-1.33;100.00;95167.13;1029877;28;20132;-73
2021/01/03 00:49:08;;;;;;;72.55;30.38;;;;;;;-1.28;100.00;95169.38;1021442;29;20023;-72
2021/01/03 00:49:39;;;;;;;73.40;30.83;;;;;;;-1.33;100.00;95166.31;1033574;28;20065;-73
2021/01/03 00:50:10;;;;;;;82.07;31.17;;;;;;;-1.31;100.00;95168.78;1025340;29;20504;-73
2021/01/03 00:50:41;;;;;;;75.70;31.83;;;;;;;-1.28;100.00;95168.56;1025867;29;20425;-73
2021/01/03 00:51:12;;;;;;;70.18;30.55;;;;;;;-1.27;100.00;95164.97;1033343;28;20025;-72
2021/01/03 00:51:43;;;;;;;77.05;31.45;;;;;;;-1.18;100.00;95172.06;1029620;28;20118;-73
2021/01/03 00:52:14;;;;;;;82.22;31.35;;;;;;;-1.18;100.00;95166.88;1029538;28;20022;-72
2021/01/03 00:52:45;;;;;;;79.93;32.30;;;;;;;-1.09;100.00;95181.75;1025399;29;20027;-73
2021/01/03 00:53:16;;;;;;;70.28;29.50;;;;;;;-1.14;100.00;95178.69;1025388;29;20059;-72
2021/01/03 00:53:46;;;;;;;67.93;29.90;;;;;;;-1.15;100.00;95174.41;1025744;29;20023;-73
2021/01/03 00:54:17;;;;;;;74.57;31.23;;;;;;;-1.14;100.00;95171.69;1025401;29;20026;-73
2021/01/03 00:54:48;;;;;;;73.25;32.90;;;;;;;-1.19;100.00;95167.81;1025162;29;20031;-73
2021/01/03 00:55:19;;;;;;;75.35;31.75;;;;;;;-1.16;100.00;95173.59;1033081;28;20034;-72
2021/01/03 00:55:50;;;;;;;79.50;32.53;;;;;;;-1.24;100.00;95168.16;1029147;28;20023;-73
2021/01/03 00:56:23;;;;;;;80.25;30.95;;;;;;;-1.27;100.00;95168.44;1029322;28;20019;-73
2021/01/03 00:56:54;;;;;;;78.65;30.02;;;;;;;-1.28;100.00;95161.56;1029491;28;20022;-73
2021/01/03 00:57:24;;;;;;;72.38;30.23;;;;;;;-1.37;100.00;95151.88;1025369;29;20259;-72
2021/01/03 00:57:55;;;;;;;67.72;30.50;;;;;;;-1.27;100.00;95167.59;1021844;29;20098;-73
2021/01/03 00:58:26;;;;;;;72.25;29.95;;;;;;;-1.24;100.00;95175.16;1029682;28;20030;-73
2021/01/03 00:58:57;;;;;;;67.28;29.60;;;;;;;-1.28;100.00;95178.97;1033226;28;20475;-73
2021/01/03 00:59:28;;;;;;;72.55;30.92;;;;;;;-1.17;100.00;95181.53;1025084;29;20030;-72
2021/01/03 00:59:58;;;;;;;69.50;30.02;;;;;;;-1.14;100.00;95170.88;1029330;28;20023;-74
2021/01/03 01:00:31;;;;;;;66.18;30.42;;;;;;;-1.18;100.00;95166.88;1033139;28;20372;-74
2021/01/03 01:01:03;;;;;;;66.03;30.33;;;;;;;-1.08;100.00;95177.34;1025372;28;20507;-74
2021/01/03 01:01:34;;;;;;;72.55;30.77;;;;;;;-1.02;100.00;95175.09;1025364;29;20042;-73
2021/01/03 01:02:05;;;;;;;74.45;30.45;;;;;;;-0.99;100.00;95176.63;1025398;29;20464;-74
2021/01/03 01:02:36;;;;;;;75.95;30.38;;;;;;;-0.95;100.00;95178.84;1031654;28;20062;-74
2021/01/03 01:03:07;;;;;;;65.63;29.17;;;;;;;-1.00;100.00;95172.34;1033111;28;20038;-73
2021/01/03 01:03:38;;;;;;;71.38;31.10;;;;;;;-0.97;100.00;95177.31;1021190;29;20035;-73
2021/01/03 01:04:09;;;;;;;70.90;31.02;;;;;;;-1.10;100.00;95177.47;1033282;28;20037;-74
2021/01/03 01:04:39;;;;;;;71.28;29.95;;;;;;;-1.22;100.00;95161.06;1033243;28;20093;-74
2021/01/03 01:05:12;;;;;;;69.88;28.33;;;;;;;-1.08;100.00;95179.97;1025276;29;20023;-73
2021/01/03 01:05:42;;;;;;;75.90;29.88;;;;;;;-1.21;100.00;95170.53;1024863;28;20035;-73
2021/01/03 01:06:13;;;;;;;67.68;29.35;;;;;;;-1.25;100.00;95179.56;1021073;29;20038;-74
2021/01/03 01:06:44;;;;;;;68.75;28.83;;;;;;;-1.31;100.00;95171.41;1028818;28;20027;-73
2021/01/03 01:07:15;;;;;;;73.60;30.77;;;;;;;-1.30;100.00;95186.91;1024892;28;20023;-73
2021/01/03 01:07:46;;;;;;;64.80;28.60;;;;;;;-1.29;100.00;95187.72;1030866;28;20030;-73
2021/01/03 01:08:17;;;;;;;78.53;30.20;;;;;;;-1.39;100.00;95172.84;1027404;29;20023;-73
2021/01/03 01:08:48;;;;;;;69.80;31.35;;;;;;;-1.27;100.00;95185.81;1021879;29;20024;-73
2021/01/03 01:09:19;;;;;;;71.93;30.83;;;;;;;-1.29;100.00;95180.72;1029622;28;20057;-74
2021/01/03 01:09:49;;;;;;;72.72;30.38;;;;;;;-1.25;100.00;95178.72;1029510;28;20046;-73
2021/01/03 01:10:28;;;;;;;68.43;29.20;;;;;;;-1.20;100.00;95181.75;1033779;28;20407;-73
2021/01/03 01:10:59;;;;;;;74.03;31.00;;;;;;;-1.18;100.00;95179.88;1025317;29;20023;-74
2021/01/03 01:11:30;;;;;;;72.55;30.08;;;;;;;-1.19;100.00;95166.03;1029559;28;20026;-74
2021/01/03 01:12:01;;;;;;;74.45;32.30;;;;;;;-1.03;100.00;95178.66;1029481;28;20026;-73
2021/01/03 01:12:34;;;;;;;71.82;30.88;;;;;;;-0.99;100.00;95179.25;1029724;28;20165;-73
2021/01/03 01:13:05;;;;;;;73.00;31.27;;;;;;;-1.01;100.00;95179.34;1037690;28;20118;-74
2021/01/03 01:13:36;;;;;;;69.25;29.67;;;;;;;-1.05;100.00;95171.91;1033562;28;20391;-74
2021/01/03 01:14:09;;;;;;;77.82;31.48;;;;;;;-1.09;100.00;95175.72;1025461;28;20117;-73
2021/01/03 01:14:42;;;;;;;68.30;30.65;;;;;;;-1.18;100.00;95179.88;1025691;28;20019;-74
2021/01/03 01:15:17;;;;;;;66.13;28.30;;;;;;;-1.12;100.00;95174.16;1025582;29;20475;-74
2021/01/03 01:15:48;;;;;;;74.75;29.83;;;;;;;-1.15;100.00;95170.06;1029402;28;20022;-73
2021/01/03 01:16:19;;;;;;;73.97;32.53;;;;;;;-1.09;100.00;95178.31;1025483;28;20024;-73
2021/01/03 01:16:49;;;;;;;74.97;30.77;;;;;;;-1.14;100.00;95170.88;1029518;28;20050;-73
2021/01/03 01:17:20;;;;;;;74.18;30.65;;;;;;;-1.22;100.00;95168.91;1025575;28;20102;-74
2021/01/03 01:17:53;;;;;;;76.18;31.13;;;;;;;-1.18;100.00;95172.06;1029597;28;20031;-73
2021/01/03 01:18:24;;;;;;;69.45;29.85;;;;;;;-1.06;100.00;95178.06;1025333;29;20019;-73
2021/01/03 01:18:54;;;;;;;70.97;29.65;;;;;;;-1.10;100.00;95158.41;1025260;29;20098;-73
2021/01/03 01:19:26;;;;;;;69.60;30.30;;;;;;;-1.00;100.00;95181.00;1025371;29;20023;-73
2021/01/03 01:19:57;;;;;;;73.40;29.13;;;;;;;-1.02;100.00;95174.25;1025301;29;20094;-73
2021/01/03 01:20:28;;;;;;;74.65;31.23;;;;;;;-1.09;100.00;95173.13;1025235;29;20023;-73
2021/01/03 01:20:59;;;;;;;75.65;31.35;;;;;;;-1.21;100.00;95159.28;1025594;29;20019;-74
2021/01/03 01:21:30;;;;;;;74.32;30.25;;;;;;;-1.24;100.00;95164.75;1037563;28;20037;-74
2021/01/03 01:22:01;;;;;;;73.00;30.40;;;;;;;-1.13;100.00;95172.53;1037669;28;20049;-73
2021/01/03 01:22:31;;;;;;;73.75;31.30;;;;;;;-1.21;100.00;95170.53;1029417;28;20027;-73
2021/01/03 01:23:02;;;;;;;72.65;30.13;;;;;;;-1.13;100.00;95175.13;1025523;29;20074;-74
2021/01/03 01:23:33;;;;;;;69.53;31.02;;;;;;;-1.14;100.00;95170.88;1029438;28;20025;-74
2021/01/03 01:24:04;;;;;;;73.03;32.25;;;;;;;-1.08;100.00;95182.56;1033262;28;20026;-73
2021/01/03 01:24:35;;;;;;;70.18;30.33;;;;;;;-1.16;100.00;95168.38;1033379;28;20475;-72
2021/01/03 01:25:07;;;;;;;73.07;31.70;;;;;;;-1.07;100.00;95177.22;1037479;28;20101;-73
2021/01/03 01:25:38;;;;;;;78.20;32.58;;;;;;;-1.15;100.00;95169.19;1033358;28;20026;-73
2021/01/03 01:26:09;;;;;;;74.45;30.92;;;;;;;-1.08;100.00;95179.97;1029256;28;20114;-72
2021/01/03 01:26:40;;;;;;;74.90;31.20;;;;;;;-1.12;100.00;95179.38;1021457;29;20509;-72
2021/01/03 01:27:10;;;;;;;76.40;30.92;;;;;;;-1.14;100.00;95173.47;1025612;29;20031;-73
2021/01/03 01:27:41;;;;;;;71.97;30.83;;;;;;;-1.08;100.00;95178.19;1025356;28;20034;-73
2021/01/03 01:28:12;;;;;;;75.53;32.63;;;;;;;-1.18;100.00;95175.50;1021473;29;20027;-73
2021/01/03 01:28:43;;;;;;;75.55;31.67;;;;;;;-1.12;100.00;95176.78;1025136;29;20026;-73
2021/01/03 01:29:13;;;;;;;84.25;33.25;;;;;;;-1.08;100.00;95177.34;1029208;28;20058;-73
2021/01/03 01:29:44;;;;;;;73.63;31.45;;;;;;;-1.03;100.00;95173.44;1025588;29;20029;-73
2021/01/03 01:30:15;;;;;;;69.68;30.08;;;;;;;-1.01;100.00;95183.72;1025377;28;20035;-73
2021/01/03 01:30:46;;;;;;;70.32;30.05;;;;;;;-0.98;100.00;95178.25;1025335;29;20042;-72
2021/01/03 01:31:18;;;;;;;75.40;30.90;;;;;;;-1.06;100.00;95181.50;1025578;29;20384;-73
2021/01/03 01:31:49;;;;;;;74.90;31.75;;;;;;;-1.08;100.00;95179.97;1025614;29;20444;-73
2021/01/03 01:32:20;;;;;;;68.10;29.63;;;;;;;-1.09;100.00;95186.97;1029407;28;20066;-73
2021/01/03 01:32:51;;;;;;;73.47;30.17;;;;;;;-1.05;100.00;95177.13;1021420;29;20504;-72
2021/01/03 01:33:21;;;;;;;69.47;30.02;;;;;;;-1.11;100.00;95178.44;1025398;29;20074;-73
2021/01/03 01:33:52;;;;;;;67.82;29.20;;;;;;;-1.18;100.00;95174.69;1029536;28;20757;-73
2021/01/03 01:34:23;;;;;;;73.55;29.00;;;;;;;-1.12;100.00;95181.16;1021269;29;20015;-73
2021/01/03 01:34:54;;;;;;;67.93;30.15;;;;;;;-1.17;100.00;95171.97;1033182;28;20042;-73
2021/01/03 01:35:27;;;;;;;70.65;29.70;;;;;;;-1.13;100.00;95185.56;1021621;29;20538;-73
2021/01/03 01:35:58;;;;;;;71.85;31.17;;;;;;;-1.18;100.00;95170.28;1029500;28;20392;-73
2021/01/03 01:36:28;;;;;;;72.30;31.48;;;;;;;-1.08;100.00;95183.41;1029440;28;20147;-73
2021/01/03 01:36:59;;;;;;;72.18;31.00;;;;;;;-1.11;100.00;95180.22;1033174;28;20014;-74
2021/01/03 01:37:33;;;;;;;66.93;28.70;;;;;;;-1.19;100.00;95178.22;1029321;28;20030;-73
2021/01/03 01:38:04;;;;;;;70.95;30.55;;;;;;;-1.07;100.00;95182.44;1033479;28;20022;-73
2021/01/03 01:38:35;;;;;;;67.78;29.58;;;;;;;-1.01;100.00;95187.16;1029303;28;20109;-73
2021/01/03 01:39:06;;;;;;;72.18;30.73;;;;;;;-1.11;100.00;95186.25;1037211;28;20463;-73
2021/01/03 01:39:37;;;;;;;66.80;29.50;;;;;;;-1.09;100.00;95189.56;1037583;28;20022;-74
2021/01/03 01:40:09;;;;;;;68.57;30.08;;;;;;;-1.12;100.00;95189.81;1029445;28;20019;-73
2021/01/03 01:40:40;;;;;;;74.00;30.63;;;;;;;-1.11;100.00;95186.25;1029196;28;20042;-74
2021/01/03 01:41:11;;;;;;;70.15;30.15;;;;;;;-1.12;100.00;95187.19;1029469;28;20043;-73
2021/01/03 01:41:41;;;;;;;72.80;31.40;;;;;;;-1.15;100.00;95185.69;1029356;28;20015;-73
2021/01/03 01:42:12;;;;;;;69.22;31.52;;;;;;;-1.09;100.00;95186.97;1029187;28;20042;-73
2021/01/03 01:42:44;;;;;;;70.63;30.45;;;;;;;-1.10;100.00;95190.50;1033363;28;20029;-73
2021/01/03 01:43:16;;;;;;;68.60;29.30;;;;;;;-1.05;100.00;95188.34;1033363;28;20015;-73
2021/01/03 01:43:47;;;;;;;69.50;30.25;;;;;;;-1.05;100.00;95190.97;1037496;28;20110;-74
2021/01/03 01:44:18;;;;;;;68.38;28.67;;;;;;;-1.09;100.00;95192.16;1025549;29;20011;-74
2021/01/03 01:44:49;;;;;;;69.20;28.30;;;;;;;-1.17;100.00;95166.75;1029174;28;20507;-73
2021/01/03 01:45:23;;;;;;;72.45;29.80;;;;;;;-1.24;100.00;95170.78;1029080;28;20177;-73
2021/01/03 01:45:54;;;;;;;73.25;31.50;;;;;;;-1.16;100.00;95186.63;1033555;28;20018;-74
2021/01/03 01:46:31;;;;;;;68.15;30.02;;;;;;;-1.20;100.00;95186.97;1025514;29;20012;-74
2021/01/03 01:47:16;;;;;;;68.70;29.52;;;;;;;-1.18;100.00;95191.13;1033548;28;20016;-73
2021/01/03 01:47:49;;;;;;;70.32;29.02;;;;;;;-1.21;100.00;95190.53;1033556;28;20101;-74
2021/01/03 01:48:22;;;;;;;63.33;27.60;;;;;;;-1.19;100.00;95184.25;1033519;28;20017;-74
2021/01/03 01:48:54;;;;;;;74.55;30.95;;;;;;;-1.17;100.00;95186.75;1029392;28;20011;-74
2021/01/03 01:49:24;;;;;;;76.25;31.00;;;;;;;-1.22;100.00;95183.66;1033244;28;20026;-73
2021/01/03 01:49:56;;;;;;;70.50;29.83;;;;;;;-1.19;100.00;95188.66;1033951;28;20018;-74
2021/01/03 01:50:35;;;;;;;70.90;29.77;;;;;;;-1.24;100.00;95180.38;1033755;28;20036;-74
2021/01/03 01:51:09;;;;;;;66.97;28.10;;;;;;;-1.23;100.00;95190.66;1025802;29;20011;-73
2021/01/03 01:51:42;;;;;;;69.63;30.35;;;;;;;-1.21;100.00;95185.34;1037290;28;20042;-73
2021/01/03 01:52:14;;;;;;;76.70;30.48;;;;;;;-1.23;100.00;95187.25;1041766;28;20482;-73
2021/01/03 01:52:49;;;;;;;69.38;29.98;;;;;;;-1.24;100.00;95185.56;1033508;28;20081;-73
2021/01/03 01:53:33;;;;;;;68.40;29.92;;;;;;;-1.30;100.00;95171.28;1029466;28;20106;-73
2021/01/03 01:54:05;;;;;;;70.22;29.20;;;;;;;-1.17;100.00;95184.13;1033669;28;20026;-73
2021/01/03 01:54:37;;;;;;;70.45;29.85;;;;;;;-1.09;100.00;95188.75;1025537;29;20448;-74
2021/01/03 01:55:10;;;;;;;66.60;29.85;;;;;;;-1.09;100.00;95193.94;1025086;28;20075;-73
2021/01/03 01:55:43;;;;;;;71.43;29.92;;;;;;;-1.08;100.00;95186.03;1028728;28;20022;-73
2021/01/03 01:56:24;;;;;;;68.75;29.40;;;;;;;-1.04;100.00;95187.41;1025413;28;20023;-74
2021/01/03 01:56:58;;;;;;;76.40;30.63;;;;;;;-1.15;100.00;95192.66;1021672;28;20480;-73
2021/01/03 01:57:32;;;;;;;68.07;28.42;;;;;;;-1.22;100.00;95194.94;1025441;29;20106;-73
2021/01/03 01:58:17;;;;;;;71.55;30.75;;;;;;;-1.21;100.00;95191.38;1029212;28;20372;-73
2021/01/03 01:58:51;;;;;;;72.43;29.58;;;;;;;-1.22;100.00;95191.50;1025036;29;20054;-74
2021/01/03 01:59:32;;;;;;;78.38;29.42;;;;;;;-1.26;100.00;95195.28;1029008;28;20018;-73
2021/01/03 02:00:14;;;;;;;74.85;31.27;;;;;;;-1.32;100.00;95188.81;1033514;28;20015;-73
2021/01/03 02:00:47;;;;;;;76.38;30.27;;;;;;;-1.37;100.00;95181.34;1025714;28;20038;-73
2021/01/03 02:01:20;;;;;;;78.63;30.38;;;;;;;-1.42;100.00;95182.66;1025766;29;20012;-73
2021/01/03 02:02:04;;;;;;;71.68;29.23;;;;;;;-1.25;100.00;95186.53;1025575;28;20019;-72
2021/01/03 02:02:38;;;;;;;77.60;29.40;;;;;;;-1.24;100.00;95182.97;1032207;28;20411;-74
2021/01/03 02:03:19;;;;;;;66.43;29.08;;;;;;;-1.20;100.00;95185.22;1029452;28;20031;-73
2021/01/03 02:03:54;;;;;;;68.15;27.95;;;;;;;-1.22;100.00;95186.28;1025668;29;20035;-73
2021/01/03 02:04:38;;;;;;;74.90;31.00;;;;;;;-1.18;100.00;95179.88;1029662;28;20030;-72
2021/01/03 02:05:20;;;;;;;71.82;28.65;;;;;;;-1.13;100.00;95182.97;1029661;28;20090;-73
2021/01/03 02:06:01;;;;;;;73.57;29.60;;;;;;;-1.16;100.00;95175.38;1033841;28;20018;-73
2021/01/03 02:06:38;;;;;;;72.00;30.30;;;;;;;-1.16;100.00;95189.22;1029544;28;20015;-73
2021/01/03 02:07:19;;;;;;;71.45;29.23;;;;;;;-1.14;100.00;95191.72;1025637;29;20035;-73
2021/01/03 02:07:54;;;;;;;67.53;29.60;;;;;;;-1.20;100.00;95198.25;1033460;28;20061;-73
2021/01/03 02:08:38;;;;;;;72.85;28.92;;;;;;;-1.20;100.00;95184.38;1029638;28;20053;-73
2021/01/03 02:09:23;;;;;;;70.60;29.45;;;;;;;-1.15;100.00;95200.47;1025864;29;20034;-73
2021/01/03 02:10:07;;;;;;;74.65;28.73;;;;;;;-1.18;100.00;95193.72;1025499;29;20551;-73
2021/01/03 02:10:40;;;;;;;73.75;30.08;;;;;;;-1.18;100.00;95198.13;1029497;28;20027;-73
2021/01/03 02:11:14;;;;;;;73.70;28.77;;;;;;;-1.22;100.00;95199.31;1025508;29;20023;-73
2021/01/03 02:11:44;;;;;;;79.53;30.85;;;;;;;-1.26;100.00;95201.31;1021493;29;20024;-73
2021/01/03 02:12:29;;;;;;;73.38;29.92;;;;;;;-1.21;100.00;95193.16;1029412;28;20023;-73
2021/01/03 02:13:12;;;;;;;74.40;30.02;;;;;;;-1.19;100.00;95193.84;1029001;28;20041;-73
2021/01/03 02:13:45;;;;;;;68.00;27.35;;;;;;;-1.12;100.00;95192.41;1033259;28;20022;-74
2021/01/03 02:14:16;;;;;;;68.53;29.45;;;;;;;-1.15;100.00;95190.03;1029193;28;20023;-73
2021/01/03 02:14:47;;;;;;;68.65;29.85;;;;;;;-1.17;100.00;95182.38;1021264;29;20027;-73
2021/01/03 02:15:22;;;;;;;68.38;29.92;;;;;;;-1.12;100.00;95189.81;1029371;28;20047;-74
2021/01/03 02:16:00;;;;;;;65.22;31.35;;;;;;;-1.17;100.00;95195.41;1033326;28;20096;-74
2021/01/03 02:16:33;;;;;;;71.20;29.80;;;;;;;-1.24;100.00;95196.00;1029324;28;20127;-73
2021/01/03 02:17:06;;;;;;;78.03;32.35;;;;;;;-1.23;100.00;95185.47;1028991;28;20023;-73
2021/01/03 02:17:37;;;;;;;68.75;28.98;;;;;;;-1.22;100.00;95186.28;1029311;28;20019;-73
2021/01/03 02:18:10;;;;;;;76.60;31.00;;;;;;;-1.23;100.00;95197.66;1025206;29;20047;-73
2021/01/03 02:18:42;;;;;;;80.68;31.33;;;;;;;-1.15;100.00;95196.09;1033235;28;20491;-73
2021/01/03 02:19:18;;;;;;;73.32;29.90;;;;;;;-1.15;100.00;95195.25;1029350;28;20066;-74
2021/01/03 02:19:50;;;;;;;68.20;31.05;;;;;;;-1.23;100.00;95190.66;1029189;28;20049;-74
2021/01/03 02:20:21;;;;;;;73.40;30.80;;;;;;;-1.42;100.00;95156.63;1029131;28;20026;-73
2021/01/03 02:21:12;;;;;;;84.93;33.15;;;;;;;-1.14;100.00;95200.34;1025278;28;20032;-73
2021/01/03 02:21:55;;;;;;;79.78;32.55;;;;;;;-1.08;100.00;95201.66;1025104;29;20412;-73
2021/01/03 02:22:34;;;;;;;78.47;32.80;;;;;;;-1.21;100.00;95182.72;1028976;28;20102;-72
2021/01/03 02:23:06;;;;;;;83.90;31.15;;;;;;;-1.12;100.00;95189.81;1028993;28;20022;-72
2021/01/03 02:23:45;;;;;;;80.43;31.92;;;;;;;-1.14;100.00;95186.50;1024903;29;20098;-73
2021/01/03 02:24:28;;;;;;;78.72;30.75;;;;;;;-0.99;100.00;95198.28;1025193;28;20024;-73
2021/01/03 02:25:02;;;;;;;80.90;30.38;;;;;;;-0.97;100.00;95199.00;1032689;28;20065;-72
2021/01/03 02:25:33;;;;;;;78.43;31.88;;;;;;;-0.95;100.00;95194.47;1028688;28;20029;-73
2021/01/03 02:26:04;;;;;;;76.93;30.90;;;;;;;-1.06;100.00;95180.66;1028964;28;20019;-73
2021/01/03 02:26:38;;;;;;;81.60;31.60;;;;;;;-1.14;100.00;95186.50;1032591;28;20096;-72
2021/01/03 02:27:19;;;;;;;75.18;31.05;;;;;;;-1.11;100.00;95201.06;1028534;28;20077;-73
2021/01/03 02:28:08;;;;;;;78.13;30.55;;;;;;;-1.15;100.00;95196.09;1025144;29;20078;-73